Time;durP1;ratioP1;P1;durP2;ratioP2;P2;SDS_P1;SDS_P2;PMS_P1;PMS_P2;Temp;Humidity;BMP_temperature;BMP_pressure;BME280_temperature;BME280_humidity;BME280_pressure;Samples;Min_cycle;Max_cycle;Signal;HPM_P1;HPM_P2
2023/10/14 00:01:31;;;;;;;0.40;0.40;;;;;;;19.40;46.38;96556.41;5054561;28;20169;-73
2023/10/14 00:03:59;;;;;;;0.40;0.40;;;;;;;19.42;46.18;96561.53;5056072;28;20521;-74
2023/10/14 00:06:27;;;;;;;0.40;0.40;;;;;;;19.40;46.21;96561.81;5054709;28;20056;-73
2023/10/14 00:08:57;;;;;;;0.30;0.30;;;;;;;19.39;46.37;96557.50;5054265;28;20032;-74
2023/10/14 00:11:27;;;;;;;0.40;0.40;;;;;;;19.36;46.68;96558.03;5053696;28;20041;-73
2023/10/14 00:13:56;;;;;;;0.40;0.40;;;;;;;19.37;46.44;96566.97;5054958;28;20041;-76
2023/10/14 00:16:29;;;;;;;0.63;0.63;;;;;;;19.35;46.80;96569.94;5053635;28;20049;-72
2023/10/14 00:19:03;;;;;;;0.40;0.40;;;;;;;19.34;46.56;96565.63;5052753;28;20033;-72
2023/10/14 00:21:34;;;;;;;0.20;0.20;;;;;;;19.31;46.83;96568.88;5054210;28;20041;-73
2023/10/14 00:24:06;;;;;;;0.43;0.43;;;;;;;19.31;46.93;96576.19;5053176;28;20641;-73
2023/10/14 00:26:34;;;;;;;0.25;0.25;;;;;;;19.28;46.98;96572.13;5053040;28;20447;-73
2023/10/14 00:29:18;;;;;;;0.40;0.40;;;;;;;19.32;46.60;96573.19;5052856;28;20460;-73
2023/10/14 00:31:47;;;;;;;0.40;0.40;;;;;;;19.40;46.15;96566.44;5051936;28;20132;-73
2023/10/14 00:34:17;;;;;;;0.30;0.30;;;;;;;19.40;46.06;96566.44;5051814;28;20127;-73
2023/10/14 00:36:45;;;;;;;0.38;0.38;;;;;;;19.42;46.27;96558.81;5050075;28;20789;-74
2023/10/14 00:39:16;;;;;;;0.40;0.40;;;;;;;19.46;45.83;96559.09;5050258;28;20037;-75
2023/10/14 00:41:49;;;;;;;0.40;0.40;;;;;;;19.44;46.05;96557.47;5050435;28;20049;-75
2023/10/14 00:44:18;;;;;;;0.35;0.35;;;;;;;19.43;46.05;96558.53;5053789;28;20127;-73
2023/10/14 00:46:49;;;;;;;0.73;0.73;;;;;;;19.46;45.70;96559.91;5050530;28;20065;-74
2023/10/14 00:49:21;;;;;;;0.40;0.30;;;;;;;19.50;45.62;96554.78;5051470;28;20060;-74
2023/10/14 00:51:52;;;;;;;0.40;0.40;;;;;;;19.47;45.98;96558.00;5050061;28;20048;-74
2023/10/14 00:54:29;;;;;;;0.40;0.40;;;;;;;19.51;45.88;96559.91;5051155;28;20041;-73
2023/10/14 00:57:10;;;;;;;0.38;0.38;;;;;;;19.57;45.55;96563.41;5049004;28;20048;-73
2023/10/14 00:59:38;;;;;;;0.30;0.30;;;;;;;19.52;45.51;96555.31;5051000;28;20057;-74
2023/10/14 01:02:09;;;;;;;0.63;0.40;;;;;;;19.50;45.65;96554.78;5051435;28;20063;-74
2023/10/14 01:04:40;;;;;;;0.47;0.43;;;;;;;19.50;45.61;96547.47;5052441;28;20507;-74
2023/10/14 01:07:13;;;;;;;0.30;0.30;;;;;;;19.52;45.50;96539.84;5050392;28;20040;-75
2023/10/14 01:09:51;;;;;;;0.50;0.50;;;;;;;19.48;45.83;96535.25;5048696;28;20045;-75
2023/10/14 01:12:23;;;;;;;0.40;0.40;;;;;;;19.48;45.96;96529.84;5050100;28;20099;-76
2023/10/14 01:14:53;;;;;;;0.40;0.40;;;;;;;19.47;45.73;96531.75;5053904;28;20040;-75
2023/10/14 01:17:28;;;;;;;0.50;0.50;;;;;;;19.49;45.94;96521.47;5052012;28;20068;-75
2023/10/14 01:20:00;;;;;;;0.40;0.30;;;;;;;19.51;45.75;96521.22;5052720;28;20095;-73
2023/10/14 01:22:30;;;;;;;0.60;0.60;;;;;;;19.52;45.70;96507.38;5051167;28;20102;-76
2023/10/14 01:24:57;;;;;;;0.30;0.30;;;;;;;19.53;46.03;96497.34;5050600;28;20059;-75
2023/10/14 01:27:34;;;;;;;0.30;0.30;;;;;;;19.52;46.05;96493.06;5052786;28;20055;-76
2023/10/14 01:30:08;;;;;;;0.30;0.30;;;;;;;19.46;45.82;96467.06;5051922;28;20037;-74
2023/10/14 01:32:48;;;;;;;0.55;0.55;;;;;;;19.43;46.09;96452.97;5052155;28;20136;-76
2023/10/14 01:35:26;;;;;;;0.50;0.50;;;;;;;19.43;46.03;96450.28;5053910;28;20068;-77
2023/10/14 01:37:56;;;;;;;0.40;0.40;;;;;;;19.47;45.82;96449.72;5050600;28;20444;-76
2023/10/14 01:40:29;;;;;;;0.40;0.40;;;;;;;19.49;45.99;96444.88;5051360;28;20052;-74
2023/10/14 01:42:58;;;;;;;0.43;0.43;;;;;;;19.51;46.01;96458.94;5050353;28;20091;-73
2023/10/14 01:45:31;;;;;;;0.77;0.50;;;;;;;19.53;46.15;96451.34;5051074;28;20036;-76
2023/10/14 01:48:12;;;;;;;0.45;0.45;;;;;;;19.47;46.34;96445.13;5050250;28;20106;-74
2023/10/14 01:50:44;;;;;;;0.60;0.35;;;;;;;19.44;46.90;96442.97;5052889;28;20132;-74
2023/10/14 01:53:17;;;;;;;0.30;0.30;;;;;;;19.39;47.45;96440.31;5054258;28;20037;-74
2023/10/14 01:55:47;;;;;;;0.52;0.52;;;;;;;19.35;47.38;96442.75;5049640;28;20044;-73
2023/10/14 01:58:22;;;;;;;0.30;0.30;;;;;;;19.34;47.53;96433.00;5050333;28;20051;-73
2023/10/14 02:00:52;;;;;;;0.38;0.38;;;;;;;19.29;47.72;96416.00;5048791;28;20509;-73
2023/10/14 02:03:21;;;;;;;0.93;0.38;;;;;;;19.32;47.28;96420.84;5053955;28;20036;-73
2023/10/14 02:05:52;;;;;;;0.40;0.40;;;;;;;19.31;47.47;96406.50;5048634;28;20068;-73
2023/10/14 02:08:22;;;;;;;0.40;0.40;;;;;;;19.27;47.67;96402.75;5049766;28;20045;-73
2023/10/14 02:10:51;;;;;;;0.30;0.30;;;;;;;19.30;47.34;96396.78;5052213;28;20826;-73
2023/10/14 02:13:21;;;;;;;0.85;0.43;;;;;;;19.32;47.12;96394.59;5056075;28;20095;-73
2023/10/14 02:15:50;;;;;;;0.30;0.30;;;;;;;19.31;47.16;96392.97;5053391;28;20098;-73
2023/10/14 02:18:21;;;;;;;0.15;0.15;;;;;;;19.33;47.09;96390.78;5052508;28;20415;-72
2023/10/14 02:21:04;;;;;;;0.47;0.47;;;;;;;19.33;47.35;96385.38;5050977;28;20059;-73
2023/10/14 02:23:44;;;;;;;0.50;0.50;;;;;;;19.34;46.89;96387.00;5052529;28;20056;-74
2023/10/14 02:26:17;;;;;;;0.50;0.50;;;;;;;19.34;47.17;96375.38;5053766;28;20059;-76
2023/10/14 02:28:46;;;;;;;0.32;0.32;;;;;;;19.38;47.26;96385.38;5051073;28;20110;-74
2023/10/14 02:31:18;;;;;;;0.35;0.35;;;;;;;19.37;47.31;96378.34;5051001;28;20045;-76
2023/10/14 02:33:47;;;;;;;0.32;0.32;;;;;;;19.34;47.13;96384.28;5048523;28;20041;-72
2023/10/14 02:36:15;;;;;;;0.30;0.30;;;;;;;19.33;47.52;96373.75;5049855;28;21001;-72
2023/10/14 02:38:53;;;;;;;0.30;0.30;;;;;;;19.35;47.63;96385.09;5047960;28;20053;-72
2023/10/14 02:41:21;;;;;;;0.43;0.43;;;;;;;19.32;47.97;96381.06;5048329;28;20098;-71
2023/10/14 02:43:50;;;;;;;0.57;0.57;;;;;;;19.28;48.46;96376.50;5049407;28;20051;-72
2023/10/14 02:46:20;;;;;;;0.57;0.57;;;;;;;19.24;48.48;96376.25;5050282;28;20068;-71
2023/10/14 02:48:55;;;;;;;0.50;0.50;;;;;;;19.27;48.47;96381.09;5047140;28;20172;-72
2023/10/14 02:51:29;;;;;;;0.35;0.30;;;;;;;19.28;48.57;96371.09;5050756;28;20045;-71
2023/10/14 02:54:04;;;;;;;0.13;0.13;;;;;;;19.27;48.34;96374.88;5050082;28;20455;-71
2023/10/14 02:56:45;;;;;;;0.35;0.35;;;;;;;19.27;48.63;96367.56;5049133;28;20139;-71
2023/10/14 02:59:17;;;;;;;0.40;0.40;;;;;;;19.29;48.47;96346.47;5050281;28;20132;-72
2023/10/14 03:01:50;;;;;;;0.30;0.30;;;;;;;19.30;48.73;96345.38;5049903;28;20053;-72
2023/10/14 03:04:21;;;;;;;0.40;0.40;;;;;;;19.35;48.64;96342.63;5048631;28;20686;-72
2023/10/14 03:06:53;;;;;;;0.40;0.40;;;;;;;19.39;48.28;96340.97;5047103;28;20048;-72
2023/10/14 03:09:32;;;;;;;0.30;0.30;;;;;;;19.42;48.49;96345.00;5048016;28;20053;-72
2023/10/14 03:12:01;;;;;;;0.30;0.30;;;;;;;19.39;48.52;96335.56;5050673;28;20037;-72
2023/10/14 03:14:40;;;;;;;0.20;0.20;;;;;;;19.46;48.66;96340.66;5049447;28;20412;-72
2023/10/14 03:17:08;;;;;;;0.50;0.50;;;;;;;19.44;48.65;96342.81;5052471;28;20576;-72
2023/10/14 03:19:35;;;;;;;0.38;0.38;;;;;;;19.41;48.73;96344.19;5053027;28;20079;-72
2023/10/14 03:22:06;;;;;;;0.50;0.50;;;;;;;19.39;48.96;96332.84;5053511;28;20054;-72
2023/10/14 03:24:38;;;;;;;0.32;0.32;;;;;;;19.46;48.77;96331.72;5054498;28;20048;-72
2023/10/14 03:27:07;;;;;;;0.40;0.40;;;;;;;19.50;48.69;96339.03;5054287;28;20076;-72
2023/10/14 03:29:36;;;;;;;0.50;0.50;;;;;;;19.52;49.21;96334.13;5053849;28;20055;-72
2023/10/14 03:32:09;;;;;;;0.40;0.40;;;;;;;19.50;49.37;96341.75;5054259;28;20051;-72
2023/10/14 03:34:41;;;;;;;1.17;0.85;;;;;;;19.49;49.25;96333.91;5053455;28;20052;-72
2023/10/14 03:37:20;;;;;;;;;;;;;;;19.47;49.38;96328.72;5054564;28;20400;-72
2023/10/14 03:40:34;;;;;;;0.35;0.35;;;;;;;19.44;49.28;96329.28;5052045;28;20402;-72
2023/10/14 03:42:42;;;;;;;0.30;0.30;;;;;;;19.42;49.47;96316.03;5053481;28;20146;-72
2023/10/14 03:45:20;;;;;;;0.43;0.43;;;;;;;19.38;49.87;96316.91;5053849;28;20044;-73
2023/10/14 03:47:51;;;;;;;0.68;0.50;;;;;;;19.34;49.63;96322.06;5049811;28;20123;-73
2023/10/14 03:50:23;;;;;;;0.50;0.50;;;;;;;19.30;50.05;96315.59;5051330;28;20162;-73
2023/10/14 03:52:53;;;;;;;0.40;0.40;;;;;;;19.34;49.78;96308.53;5053662;28;20044;-71
2023/10/14 03:55:24;;;;;;;0.50;0.50;;;;;;;19.30;50.00;96328.34;5054713;28;20120;-71
2023/10/14 03:57:53;;;;;;;;;;;;;;;19.26;50.04;96343.50;5053775;28;20079;-71
2023/10/14 04:00:36;;;;;;;0.47;0.47;;;;;;;19.42;49.63;96329.56;5053915;28;19948;-71
2023/10/14 04:03:11;;;;;;;0.20;0.20;;;;;;;19.40;49.88;96334.47;5054772;28;20045;-71
2023/10/14 04:05:46;;;;;;;0.50;0.50;;;;;;;19.46;49.78;96329.00;5054672;28;20075;-71
2023/10/14 04:08:14;;;;;;;0.40;0.40;;;;;;;19.45;50.09;96322.78;5056553;28;20044;-71
2023/10/14 04:10:45;;;;;;;0.40;0.40;;;;;;;19.52;50.02;96311.69;5056448;28;20072;-71
2023/10/14 04:13:14;;;;;;;0.40;0.40;;;;;;;19.50;50.19;96311.97;5053662;28;20041;-72
2023/10/14 04:15:50;;;;;;;0.25;0.25;;;;;;;19.49;50.58;96313.06;5051892;28;20049;-72
2023/10/14 04:18:24;;;;;;;0.40;0.40;;;;;;;19.44;50.77;96300.31;5052676;28;20574;-72
2023/10/14 04:21:11;;;;;;;0.40;0.40;;;;;;;19.41;51.21;96287.34;5050525;28;20072;-72
2023/10/14 04:23:59;;;;;;;0.50;0.50;;;;;;;19.41;51.50;96297.41;5052736;28;20041;-72
2023/10/14 04:26:31;;;;;;;0.40;0.40;;;;;;;19.38;52.07;96298.75;5050025;28;20099;-73
2023/10/14 04:29:00;;;;;;;0.63;0.40;;;;;;;19.37;52.31;96289.03;5051478;28;20123;-74
2023/10/14 04:31:39;;;;;;;0.40;0.40;;;;;;;19.39;52.50;96289.56;5052882;28;20044;-74
2023/10/14 04:34:09;;;;;;;0.50;0.50;;;;;;;19.38;52.19;96285.22;5053486;28;20045;-74
2023/10/14 04:36:36;;;;;;;0.43;0.43;;;;;;;19.38;52.27;96284.41;5053444;28;20052;-71
2023/10/14 04:39:12;;;;;;;0.32;0.32;;;;;;;19.41;51.88;96298.19;5051610;28;20124;-73
2023/10/14 04:42:21;;;;;;;0.40;0.40;;;;;;;19.38;52.14;96293.34;5052772;28;20492;-72
2023/10/14 04:44:55;;;;;;;0.40;0.40;;;;;;;19.35;51.89;96285.78;5051332;28;20532;-72
2023/10/14 04:47:35;;;;;;;0.22;0.22;;;;;;;19.31;51.91;96281.25;5051727;28;20389;-72
2023/10/14 04:50:13;;;;;;;0.32;0.32;;;;;;;19.31;52.04;96273.13;5052852;28;20128;-74
2023/10/14 04:52:42;;;;;;;0.30;0.30;;;;;;;19.29;52.02;96292.34;5052431;28;20041;-72
2023/10/14 04:55:25;;;;;;;0.30;0.30;;;;;;;19.23;52.18;96277.22;5051900;28;20052;-71
2023/10/14 04:58:11;;;;;;;0.50;0.50;;;;;;;19.26;52.34;96292.09;5049797;28;20057;-71
2023/10/14 05:00:43;;;;;;;0.40;0.40;;;;;;;19.26;52.25;96298.31;5051086;28;20040;-73
2023/10/14 05:03:13;;;;;;;0.40;0.40;;;;;;;19.21;52.56;96303.75;5051491;28;20499;-72
2023/10/14 05:05:43;;;;;;;0.30;0.30;;;;;;;19.18;53.11;96307.03;5051584;28;20037;-71
2023/10/14 05:08:15;;;;;;;0.40;0.40;;;;;;;19.12;53.12;96318.16;5052072;28;20523;-72
2023/10/14 05:10:44;;;;;;;0.15;0.15;;;;;;;19.10;53.29;96315.75;5052458;28;20510;-72
2023/10/14 05:13:13;;;;;;;0.52;0.52;;;;;;;19.09;53.68;96310.59;5052860;28;20037;-72
2023/10/14 05:15:42;;;;;;;0.40;0.40;;;;;;;19.08;53.49;96309.81;5050817;28;20041;-72
2023/10/14 05:18:15;;;;;;;0.40;0.40;;;;;;;19.02;53.69;96319.81;5050968;28;20048;-72
2023/10/14 05:21:02;;;;;;;0.30;0.30;;;;;;;19.00;54.32;96319.28;5051938;28;20163;-73
2023/10/14 05:23:32;;;;;;;0.38;0.38;;;;;;;19.09;54.50;96313.31;5051767;28;20443;-72
2023/10/14 05:26:06;;;;;;;0.52;0.52;;;;;;;19.06;54.40;96298.44;5051267;28;20083;-73
2023/10/14 05:28:36;;;;;;;0.52;0.52;;;;;;;19.03;54.75;96310.63;5050828;28;20110;-71
2023/10/14 05:31:08;;;;;;;0.60;0.60;;;;;;;19.03;55.23;96326.84;5052545;28;20048;-71
2023/10/14 05:33:36;;;;;;;0.20;0.20;;;;;;;19.04;55.55;96314.16;5051392;28;20045;-72
2023/10/14 05:36:06;;;;;;;0.50;0.50;;;;;;;19.03;55.38;96329.56;5051352;28;20680;-73
2023/10/14 05:38:33;;;;;;;0.22;0.22;;;;;;;19.03;55.77;96326.84;5051078;28;20445;-72
2023/10/14 05:41:06;;;;;;;0.60;0.60;;;;;;;19.06;55.60;96334.41;5051754;28;20044;-73
2023/10/14 05:43:35;;;;;;;0.52;0.43;;;;;;;19.08;55.51;96330.63;5050731;28;20199;-71
2023/10/14 05:46:12;;;;;;;0.55;0.32;;;;;;;19.05;55.75;96337.41;5052024;28;20044;-72
2023/10/14 05:48:40;;;;;;;0.47;0.47;;;;;;;19.06;56.02;96331.72;5051257;28;20048;-73
2023/10/14 05:51:08;;;;;;;2.40;2.40;;;;;;;19.08;55.80;96336.84;5051462;28;20124;-72
2023/10/14 05:53:35;;;;;;;0.82;0.82;;;;;;;19.09;55.53;96330.34;5051644;28;20064;-73
2023/10/14 05:56:09;;;;;;;0.40;0.40;;;;;;;19.12;55.28;96340.59;5050224;28;20120;-72
2023/10/14 05:58:40;;;;;;;0.52;0.52;;;;;;;19.12;55.00;96351.41;5052582;28;20484;-73
2023/10/14 06:01:09;;;;;;;0.40;0.40;;;;;;;19.11;55.21;96338.97;5050246;28;20098;-73
2023/10/14 06:03:37;;;;;;;0.40;0.40;;;;;;;19.16;55.13;96343.56;5047337;28;20043;-72
2023/10/14 06:06:09;;;;;;;0.50;0.50;;;;;;;19.15;55.41;96345.47;5049159;28;20456;-73
2023/10/14 06:08:36;;;;;;;;;;;;;;;19.14;55.31;96351.94;5050780;28;20047;-72
2023/10/14 06:11:05;;;;;;;0.13;0.13;;;;;;;19.14;55.55;96345.72;5050358;28;20475;-72
2023/10/14 06:13:33;;;;;;;0.30;0.30;;;;;;;19.14;55.94;96360.06;5050725;28;20055;-72
2023/10/14 06:16:09;;;;;;;0.63;0.60;;;;;;;19.17;55.91;96370.34;5050792;28;20047;-72
2023/10/14 06:18:38;;;;;;;0.40;0.40;;;;;;;19.17;56.16;96364.13;5049850;28;20075;-73
2023/10/14 06:21:08;;;;;;;0.40;0.40;;;;;;;19.17;56.46;96378.47;5050953;28;20510;-73
2023/10/14 06:23:39;;;;;;;0.40;0.40;;;;;;;19.15;56.60;96377.91;5049717;28;20036;-73
2023/10/14 06:26:07;;;;;;;0.40;0.40;;;;;;;19.16;56.73;96378.72;5049301;28;20041;-73
2023/10/14 06:28:37;;;;;;;0.57;0.57;;;;;;;19.22;56.52;96381.13;5050590;28;20052;-73
2023/10/14 06:31:06;;;;;;;0.45;0.45;;;;;;;19.21;56.83;96379.50;5047803;28;20048;-73
2023/10/14 06:33:35;;;;;;;0.70;0.68;;;;;;;19.23;57.12;96382.75;5050223;28;20041;-72
2023/10/14 06:36:04;;;;;;;0.38;0.38;;;;;;;19.23;57.15;96382.75;5049317;28;20040;-73
2023/10/14 06:38:36;;;;;;;0.47;0.40;;;;;;;19.22;57.50;96399.25;5050280;28;20041;-73
2023/10/14 06:41:05;;;;;;;0.40;0.40;;;;;;;19.20;57.21;96390.63;5050490;28;20049;-73
2023/10/14 06:43:33;;;;;;;0.50;0.50;;;;;;;19.18;57.10;96401.72;5050241;28;20059;-73
2023/10/14 06:46:04;;;;;;;0.30;0.30;;;;;;;19.17;57.58;96410.13;5050643;28;20045;-73
2023/10/14 06:48:34;;;;;;;0.30;0.30;;;;;;;19.20;57.28;96413.06;5049925;28;20626;-73
2023/10/14 06:51:02;;;;;;;0.60;0.60;;;;;;;19.20;57.27;96417.69;5052419;28;20045;-72
2023/10/14 06:53:29;;;;;;;0.47;0.47;;;;;;;19.13;57.56;96420.66;5054531;28;20073;-73
2023/10/14 06:55:58;;;;;;;0.25;0.25;;;;;;;19.13;58.11;96427.97;5052482;28;20420;-73
2023/10/14 06:58:28;;;;;;;0.47;0.47;;;;;;;19.11;58.38;96432.84;5054838;28;20098;-73
2023/10/14 07:00:57;;;;;;;0.30;0.30;;;;;;;19.07;59.12;96446.13;5052879;28;20041;-73
2023/10/14 07:03:25;;;;;;;0.47;0.47;;;;;;;19.02;59.30;96446.94;5054621;28;20115;-72
2023/10/14 07:05:58;;;;;;;0.65;0.50;;;;;;;18.93;60.44;96454.03;5052931;28;20040;-75
2023/10/14 07:08:27;;;;;;;0.35;0.35;;;;;;;18.89;61.05;96462.97;5054891;28;20072;-75
2023/10/14 07:10:55;;;;;;;0.30;0.30;;;;;;;18.77;62.20;96467.88;5053842;28;20586;-75
2023/10/14 07:13:24;;;;;;;0.60;0.60;;;;;;;18.69;63.06;96464.63;5053345;28;20051;-75
2023/10/14 07:15:53;;;;;;;0.40;0.40;;;;;;;18.61;63.54;96459.78;5053551;28;20063;-73
2023/10/14 07:18:23;;;;;;;0.47;0.43;;;;;;;18.58;64.06;96464.94;5053568;28;20044;-73
2023/10/14 07:21:00;;;;;;;0.40;0.40;;;;;;;18.56;64.22;96475.19;5053182;28;20059;-72
2023/10/14 07:23:29;;;;;;;0.50;0.50;;;;;;;18.55;64.68;96470.84;5052742;28;20123;-73
2023/10/14 07:25:57;;;;;;;0.43;0.43;;;;;;;18.54;64.97;96488.16;5052717;28;20182;-73
2023/10/14 07:28:26;;;;;;;0.30;0.30;;;;;;;18.53;64.93;96475.72;5053968;28;20041;-73
2023/10/14 07:30:56;;;;;;;0.50;0.50;;;;;;;18.48;65.32;96487.34;5052931;28;20049;-73
2023/10/14 07:33:24;;;;;;;0.40;0.40;;;;;;;18.42;66.06;96493.84;5052712;28;20500;-73
2023/10/14 07:35:52;;;;;;;0.50;0.50;;;;;;;18.39;66.24;96497.06;5052679;28;20045;-73
2023/10/14 07:38:21;;;;;;;0.40;0.40;;;;;;;18.37;66.24;96504.66;5053279;28;20045;-73
2023/10/14 07:40:49;;;;;;;0.40;0.40;;;;;;;18.34;66.39;96510.59;5052283;28;20068;-73
2023/10/14 07:43:19;;;;;;;0.55;0.55;;;;;;;18.33;66.81;96511.69;5069661;28;20507;-73
2023/10/14 07:45:47;;;;;;;0.30;0.30;;;;;;;18.32;67.00;96520.88;5053317;28;20068;-73
2023/10/14 07:48:17;;;;;;;0.40;0.40;;;;;;;18.28;67.30;96519.78;5052652;28;20056;-73
2023/10/14 07:50:47;;;;;;;0.43;0.43;;;;;;;18.27;67.44;96516.25;5052855;28;20045;-73
2023/10/14 07:53:22;;;;;;;0.50;0.50;;;;;;;18.22;67.72;96508.16;5052830;28;20047;-73
2023/10/14 07:55:53;;;;;;;0.40;0.40;;;;;;;18.20;67.91;96517.63;5049636;28;20488;-74
2023/10/14 07:58:24;;;;;;;0.50;0.50;;;;;;;18.22;67.88;96532.47;5052502;28;20524;-73
2023/10/14 08:00:52;;;;;;;0.40;0.40;;;;;;;18.21;68.17;96530.84;5052906;28;20142;-74
2023/10/14 08:03:21;;;;;;;0.40;0.40;;;;;;;18.19;68.56;96538.41;5051458;28;20099;-73
2023/10/14 08:05:52;;;;;;;0.22;0.22;;;;;;;18.19;69.07;96543.00;5053486;28;20378;-73
2023/10/14 08:08:20;;;;;;;0.50;0.50;;;;;;;18.18;69.33;96547.59;5051936;28;20526;-73
2023/10/14 08:10:50;;;;;;;0.43;0.43;;;;;;;18.16;69.58;96538.97;5052469;28;20127;-73
2023/10/14 08:13:21;;;;;;;0.38;0.38;;;;;;;18.09;69.76;96581.63;5053266;28;20080;-73
2023/10/14 08:15:50;;;;;;;0.47;0.47;;;;;;;17.88;68.07;96666.34;5049005;28;20435;-73
2023/10/14 08:18:19;;;;;;;0.32;0.32;;;;;;;17.01;73.50;96680.38;5051764;28;20044;-74
2023/10/14 08:20:47;;;;;;;0.22;0.22;;;;;;;16.66;75.55;96683.56;5053009;28;20441;-73
2023/10/14 08:23:15;;;;;;;0.40;0.40;;;;;;;16.37;77.62;96686.50;5051679;28;20128;-72
2023/10/14 08:25:43;;;;;;;0.32;0.32;;;;;;;16.21;78.42;96695.47;5053156;28;20049;-72
2023/10/14 08:28:11;;;;;;;0.43;0.10;;;;;;;16.25;78.09;96698.47;5052229;28;20394;-72
2023/10/14 08:30:46;;;;;;;0.32;0.32;;;;;;;16.24;79.94;96705.75;5052516;28;20045;-72
2023/10/14 08:33:14;;;;;;;0.32;0.32;;;;;;;16.03;77.66;96715.47;5052472;28;20052;-72
2023/10/14 08:35:42;;;;;;;0.30;0.30;;;;;;;15.87;77.03;96729.81;5054261;28;20124;-76
2023/10/14 08:38:12;;;;;;;0.08;0.08;;;;;;;15.30;78.59;96732.72;5057277;28;20405;-75
2023/10/14 08:40:40;;;;;;;0.38;0.38;;;;;;;15.33;77.64;96743.00;5055244;28;20122;-75
2023/10/14 08:43:10;;;;;;;0.20;0.20;;;;;;;14.88;78.74;96740.38;5057071;28;20051;-76
2023/10/14 08:45:41;;;;;;;0.30;0.30;;;;;;;14.97;79.07;96741.59;5060174;28;20061;-75
2023/10/14 08:48:11;;;;;;;0.30;0.30;;;;;;;15.06;78.67;96756.25;5063418;28;20048;-75
2023/10/14 08:50:40;;;;;;;0.30;0.30;;;;;;;14.85;80.68;96754.28;5062231;28;20061;-75
2023/10/14 08:53:09;;;;;;;0.32;0.32;;;;;;;15.07;80.17;96755.19;5061122;28;20108;-75
2023/10/14 08:55:39;;;;;;;0.30;0.30;;;;;;;15.24;79.14;96763.28;5053676;28;20068;-75
2023/10/14 08:58:13;;;;;;;0.20;0.20;;;;;;;15.33;78.85;96777.94;5051368;28;20047;-75
2023/10/14 09:00:45;;;;;;;0.40;0.40;;;;;;;15.35;79.15;96778.53;5050732;28;20045;-75
2023/10/14 09:03:13;;;;;;;0.65;0.65;;;;;;;15.31;77.50;96796.19;5052943;28;20069;-75
2023/10/14 09:05:41;;;;;;;0.50;0.50;;;;;;;15.27;76.71;96813.03;5050273;28;20572;-75
2023/10/14 09:08:11;;;;;;;0.32;0.32;;;;;;;15.24;77.23;96809.00;5053259;28;20072;-75
2023/10/14 09:10:40;;;;;;;0.40;0.40;;;;;;;15.26;76.17;96816.81;5055403;28;20057;-75
2023/10/14 09:13:09;;;;;;;0.55;0.55;;;;;;;15.19;76.74;96826.91;5050172;28;20432;-75
2023/10/14 09:15:41;;;;;;;0.30;0.30;;;;;;;15.13;77.13;96826.00;5053063;28;20124;-75
2023/10/14 09:18:14;;;;;;;0.30;0.30;;;;;;;15.01;77.28;96834.13;5052596;28;20041;-75
2023/10/14 09:20:42;;;;;;;0.32;0.32;;;;;;;15.03;76.84;96837.41;5053006;28;20060;-75
2023/10/14 09:23:14;;;;;;;0.32;0.32;;;;;;;14.99;76.90;96848.84;5052852;28;20045;-75
2023/10/14 09:25:43;;;;;;;0.40;0.40;;;;;;;14.84;77.46;96841.34;5052792;28;20049;-76
2023/10/14 09:28:11;;;;;;;0.43;0.43;;;;;;;14.84;77.22;96854.78;5051773;28;20044;-76
2023/10/14 09:30:44;;;;;;;0.30;0.30;;;;;;;14.67;77.82;96857.38;5052377;28;20416;-75
2023/10/14 09:33:21;;;;;;;0.30;0.30;;;;;;;14.58;78.48;96853.44;5052864;28;20049;-76
2023/10/14 09:35:50;;;;;;;0.38;0.38;;;;;;;14.43;79.66;96855.81;5054130;28;20041;-75
2023/10/14 09:38:21;;;;;;;0.47;0.47;;;;;;;14.50;79.16;96861.88;5051478;28;20493;-75
2023/10/14 09:40:53;;;;;;;0.32;0.32;;;;;;;14.45;78.79;96863.63;5056294;28;20037;-75
2023/10/14 09:43:24;;;;;;;0.43;0.43;;;;;;;14.36;79.23;96883.81;5056046;28;20044;-76
2023/10/14 09:45:55;;;;;;;0.47;0.47;;;;;;;14.31;78.76;96887.22;5055391;28;20041;-75
2023/10/14 09:48:26;;;;;;;0.40;0.40;;;;;;;14.17;78.39;96891.19;5053922;28;20044;-75
2023/10/14 09:50:55;;;;;;;0.30;0.30;;;;;;;14.25;76.92;96894.34;5052765;28;20120;-76
2023/10/14 09:53:27;;;;;;;0.60;0.60;;;;;;;14.27;75.59;96888.75;5053502;28;20055;-75
2023/10/14 09:55:58;;;;;;;0.40;0.40;;;;;;;14.34;75.58;96900.97;5051026;28;20044;-75
2023/10/14 09:58:30;;;;;;;0.30;0.30;;;;;;;14.35;75.94;96904.47;5050142;28;20476;-76
2023/10/14 10:01:00;;;;;;;0.08;0.08;;;;;;;14.40;73.98;96906.50;5052524;28;20638;-75
2023/10/14 10:03:34;;;;;;;0.35;0.35;;;;;;;14.41;73.74;96903.59;5051281;28;20087;-75
2023/10/14 10:06:10;;;;;;;0.40;0.40;;;;;;;14.23;73.67;96912.53;5051769;28;20128;-75
2023/10/14 10:08:57;;;;;;;0.43;0.43;;;;;;;14.37;74.42;96915.81;5050741;28;20116;-75
2023/10/14 10:11:25;;;;;;;0.32;0.32;;;;;;;14.45;74.95;96912.78;5051126;28;20049;-75
2023/10/14 10:13:53;;;;;;;0.43;0.43;;;;;;;14.45;72.89;96918.16;5050513;28;20112;-75
2023/10/14 10:16:21;;;;;;;0.25;0.25;;;;;;;14.54;72.96;96926.66;5050675;28;20369;-75
2023/10/14 10:18:52;;;;;;;0.50;0.50;;;;;;;14.65;71.26;96921.28;5050746;28;20064;-75
2023/10/14 10:21:20;;;;;;;0.57;0.57;;;;;;;14.60;72.61;96923.03;5049754;28;20045;-75
2023/10/14 10:23:51;;;;;;;0.30;0.30;;;;;;;14.73;70.37;96924.66;5049906;28;20074;-75
2023/10/14 10:26:19;;;;;;;0.40;0.40;;;;;;;14.82;69.47;96924.06;5055337;28;20508;-75
2023/10/14 10:28:47;;;;;;;0.50;0.50;;;;;;;14.91;67.36;96930.69;5050958;28;20048;-75
2023/10/14 10:31:17;;;;;;;0.60;0.60;;;;;;;14.88;68.24;96930.31;5054858;28;21126;-75
2023/10/14 10:34:01;;;;;;;0.50;0.50;;;;;;;15.03;68.37;96930.66;5063905;28;20099;-74
2023/10/14 10:36:30;;;;;;;0.40;0.40;;;;;;;15.05;68.47;96931.22;5068776;28;20049;-74
2023/10/14 10:39:06;;;;;;;0.57;0.57;;;;;;;15.00;65.97;96934.63;5063647;28;20094;-74
2023/10/14 10:41:37;;;;;;;0.50;0.50;;;;;;;15.02;66.24;96951.34;5058040;28;20567;-75
2023/10/14 10:44:08;;;;;;;0.82;0.82;;;;;;;14.86;66.38;96932.44;5054624;28;20052;-75
2023/10/14 10:46:40;;;;;;;0.40;0.40;;;;;;;14.94;67.19;96937.47;5051583;28;20049;-75
2023/10/14 10:49:11;;;;;;;0.20;0.20;;;;;;;14.88;66.75;96939.22;5053671;28;20353;-76
2023/10/14 10:51:43;;;;;;;0.30;0.30;;;;;;;14.98;66.79;96941.28;5054633;28;20120;-75
2023/10/14 10:54:12;;;;;;;0.30;0.30;;;;;;;14.97;65.67;96936.97;5059718;28;20076;-75
2023/10/14 10:56:41;;;;;;;0.30;0.30;;;;;;;14.82;65.75;96945.53;5061002;28;20415;-75
2023/10/14 10:59:25;;;;;;;0.60;0.60;;;;;;;14.72;66.98;96941.84;5058721;28;20049;-75
2023/10/14 11:01:56;;;;;;;0.47;0.47;;;;;;;14.97;66.96;96935.09;5058966;28;20044;-75
2023/10/14 11:04:26;;;;;;;0.35;0.35;;;;;;;14.97;66.91;96940.47;5058865;28;20046;-75
2023/10/14 11:06:53;;;;;;;0.40;0.40;;;;;;;14.73;66.63;96952.34;5059514;28;20048;-75
2023/10/14 11:09:21;;;;;;;0.47;0.47;;;;;;;14.57;68.00;96940.44;5060346;28;20041;-75
2023/10/14 11:11:49;;;;;;;0.45;0.45;;;;;;;14.51;68.71;96944.09;5059006;28;20032;-75
2023/10/14 11:14:18;;;;;;;0.52;0.52;;;;;;;14.51;68.53;96949.47;5054218;28;20049;-75
2023/10/14 11:16:52;;;;;;;0.63;0.63;;;;;;;14.72;68.40;96953.41;5051183;28;20029;-75
2023/10/14 11:19:20;;;;;;;0.38;0.38;;;;;;;14.72;67.63;96945.34;5052560;28;20107;-75
2023/10/14 11:21:51;;;;;;;0.30;0.30;;;;;;;14.67;68.53;96937.16;5057023;28;20413;-74
2023/10/14 11:24:19;;;;;;;0.40;0.40;;;;;;;14.74;67.82;96935.19;5051163;28;20102;-75
2023/10/14 11:26:47;;;;;;;0.50;0.50;;;;;;;14.86;67.69;96927.88;5050115;28;20120;-75
2023/10/14 11:29:15;;;;;;;0.30;0.30;;;;;;;14.95;67.37;96944.47;5050279;28;20056;-75
2023/10/14 11:31:44;;;;;;;0.40;0.40;;;;;;;14.98;66.79;96936.72;5050142;28;20132;-75
2023/10/14 11:34:12;;;;;;;0.32;0.32;;;;;;;14.96;66.41;96933.44;5049153;28;20056;-75
2023/10/14 11:36:42;;;;;;;0.30;0.30;;;;;;;14.82;66.68;96933.97;5052340;28;20423;-75
2023/10/14 11:39:13;;;;;;;0.50;0.50;;;;;;;15.11;65.94;96938.31;5054283;28;20037;-75
2023/10/14 11:41:42;;;;;;;0.50;0.50;;;;;;;14.71;66.34;96938.31;5053738;28;20052;-75
2023/10/14 11:44:09;;;;;;;0.30;0.30;;;;;;;14.74;66.95;96943.22;5053760;28;20504;-75
2023/10/14 11:46:38;;;;;;;0.40;0.40;;;;;;;14.95;66.95;96945.25;5052596;28;20045;-75
2023/10/14 11:49:09;;;;;;;0.50;0.50;;;;;;;15.05;66.63;96945.47;5054203;28;20094;-75
2023/10/14 11:51:40;;;;;;;0.57;0.52;;;;;;;15.00;66.70;96939.19;5051554;28;20048;-75
2023/10/14 11:54:11;;;;;;;0.50;0.50;;;;;;;15.14;66.73;96935.16;5051811;28;20047;-75